sensor_id;sensor_type;location;lat;lon;timestamp;P1;durP1;ratioP1;P2;durP2;ratioP2
13002;SDS011;66869;57.706;11.922;2023-02-28T00:00:32;0.63;;;0.60;;
13002;SDS011;66869;57.706;11.922;2023-02-28T00:02:58;0.57;;;0.55;;
13002;SDS011;66869;57.706;11.922;2023-02-28T00:05:24;0.82;;;0.50;;
13002;SDS011;66869;57.706;11.922;2023-02-28T00:07:49;0.85;;;0.70;;
13002;SDS011;66869;57.706;11.922;2023-02-28T00:10:17;0.60;;;0.60;;
13002;SDS011;66869;57.706;11.922;2023-02-28T00:12:45;0.68;;;0.68;;
13002;SDS011;66869;57.706;11.922;2023-02-28T00:15:11;0.55;;;0.55;;
13002;SDS011;66869;57.706;11.922;2023-02-28T00:17:37;0.88;;;0.85;;
13002;SDS011;66869;57.706;11.922;2023-02-28T00:20:02;0.90;;;0.60;;
13002;SDS011;66869;57.706;11.922;2023-02-28T00:22:29;0.70;;;0.70;;
13002;SDS011;66869;57.706;11.922;2023-02-28T00:24:55;0.60;;;0.60;;
13002;SDS011;66869;57.706;11.922;2023-02-28T00:27:20;1.00;;;0.50;;
13002;SDS011;66869;57.706;11.922;2023-02-28T00:29:46;2.00;;;0.73;;
13002;SDS011;66869;57.706;11.922;2023-02-28T00:32:11;0.80;;;0.70;;
13002;SDS011;66869;57.706;11.922;2023-02-28T00:34:36;0.70;;;0.60;;
13002;SDS011;66869;57.706;11.922;2023-02-28T00:37:03;0.60;;;0.60;;
13002;SDS011;66869;57.706;11.922;2023-02-28T00:39:28;0.55;;;0.55;;
13002;SDS011;66869;57.706;11.922;2023-02-28T00:41:54;1.50;;;0.75;;
13002;SDS011;66869;57.706;11.922;2023-02-28T00:44:19;1.08;;;0.60;;
13002;SDS011;66869;57.706;11.922;2023-02-28T00:46:46;1.13;;;0.50;;
13002;SDS011;66869;57.706;11.922;2023-02-28T00:49:11;0.70;;;0.50;;
13002;SDS011;66869;57.706;11.922;2023-02-28T00:51:37;0.70;;;0.70;;
13002;SDS011;66869;57.706;11.922;2023-02-28T00:54:02;0.50;;;0.50;;
13002;SDS011;66869;57.706;11.922;2023-02-28T00:56:27;0.75;;;0.68;;
13002;SDS011;66869;57.706;11.922;2023-02-28T00:58:52;0.65;;;0.60;;
13002;SDS011;66869;57.706;11.922;2023-02-28T01:01:18;0.50;;;0.50;;
13002;SDS011;66869;57.706;11.922;2023-02-28T01:03:43;0.60;;;0.60;;
13002;SDS011;66869;57.706;11.922;2023-02-28T01:06:08;0.50;;;0.50;;
13002;SDS011;66869;57.706;11.922;2023-02-28T01:08:33;0.85;;;0.60;;
13002;SDS011;66869;57.706;11.922;2023-02-28T01:11:06;0.57;;;0.55;;
13002;SDS011;66869;57.706;11.922;2023-02-28T01:13:31;0.57;;;0.57;;
13002;SDS011;66869;57.706;11.922;2023-02-28T01:15:56;0.50;;;0.50;;
13002;SDS011;66869;57.706;11.922;2023-02-28T01:18:22;0.50;;;0.50;;
13002;SDS011;66869;57.706;11.922;2023-02-28T01:20:48;0.50;;;0.50;;
13002;SDS011;66869;57.706;11.922;2023-02-28T01:23:13;0.70;;;0.55;;
13002;SDS011;66869;57.706;11.922;2023-02-28T01:25:38;1.20;;;0.50;;
13002;SDS011;66869;57.706;11.922;2023-02-28T01:28:04;1.15;;;0.50;;
13002;SDS011;66869;57.706;11.922;2023-02-28T01:30:30;0.77;;;0.60;;
13002;SDS011;66869;57.706;11.922;2023-02-28T01:32:56;0.98;;;0.80;;
13002;SDS011;66869;57.706;11.922;2023-02-28T01:35:21;0.60;;;0.60;;
13002;SDS011;66869;57.706;11.922;2023-02-28T01:37:46;1.02;;;0.50;;
13002;SDS011;66869;57.706;11.922;2023-02-28T01:40:12;0.50;;;0.50;;
13002;SDS011;66869;57.706;11.922;2023-02-28T01:42:37;1.80;;;0.55;;
13002;SDS011;66869;57.706;11.922;2023-02-28T01:45:06;1.48;;;0.70;;
13002;SDS011;66869;57.706;11.922;2023-02-28T01:47:32;0.80;;;0.60;;
13002;SDS011;66869;57.706;11.922;2023-02-28T01:49:59;0.50;;;0.50;;
13002;SDS011;66869;57.706;11.922;2023-02-28T01:52:25;3.35;;;0.70;;
13002;SDS011;66869;57.706;11.922;2023-02-28T01:54:52;0.70;;;0.70;;
13002;SDS011;66869;57.706;11.922;2023-02-28T01:57:20;0.60;;;0.50;;
13002;SDS011;66869;57.706;11.922;2023-02-28T01:59:52;0.57;;;0.47;;
13002;SDS011;66869;57.706;11.922;2023-02-28T02:02:20;0.68;;;0.63;;
13002;SDS011;66869;57.706;11.922;2023-02-28T02:04:48;0.50;;;0.50;;
13002;SDS011;66869;57.706;11.922;2023-02-28T02:07:15;0.52;;;0.52;;
13002;SDS011;66869;57.706;11.922;2023-02-28T02:09:41;0.70;;;0.70;;
13002;SDS011;66869;57.706;11.922;2023-02-28T02:12:27;0.50;;;0.50;;
13002;SDS011;66869;57.706;11.922;2023-02-28T02:15:09;0.50;;;0.50;;
13002;SDS011;66869;57.706;11.922;2023-02-28T02:17:39;0.50;;;0.50;;
13002;SDS011;66869;57.706;11.922;2023-02-28T02:43:07;0.50;;;0.50;;
13002;SDS011;66869;57.706;11.922;2023-02-28T02:45:34;0.60;;;0.47;;
13002;SDS011;66869;57.706;11.922;2023-02-28T02:48:03;0.50;;;0.50;;
13002;SDS011;66869;57.706;11.922;2023-02-28T02:50:32;0.50;;;0.50;;
13002;SDS011;66869;57.706;11.922;2023-02-28T02:52:59;0.50;;;0.43;;
13002;SDS011;66869;57.706;11.922;2023-02-28T02:55:26;0.52;;;0.52;;
13002;SDS011;66869;57.706;11.922;2023-02-28T02:57:53;0.77;;;0.60;;
13002;SDS011;66869;57.706;11.922;2023-02-28T03:00:22;0.75;;;0.50;;
13002;SDS011;66869;57.706;11.922;2023-02-28T03:02:48;0.50;;;0.50;;
13002;SDS011;66869;57.706;11.922;2023-02-28T03:05:24;0.57;;;0.57;;
13002;SDS011;66869;57.706;11.922;2023-02-28T03:07:50;0.60;;;0.57;;
13002;SDS011;66869;57.706;11.922;2023-02-28T03:10:25;0.40;;;0.40;;
13002;SDS011;66869;57.706;11.922;2023-02-28T03:12:53;2.15;;;0.50;;
13002;SDS011;66869;57.706;11.922;2023-02-28T03:15:27;0.73;;;0.35;;
13002;SDS011;66869;57.706;11.922;2023-02-28T03:18:06;0.50;;;0.47;;
13002;SDS011;66869;57.706;11.922;2023-02-28T03:20:41;0.50;;;0.50;;
13002;SDS011;66869;57.706;11.922;2023-02-28T03:23:16;1.00;;;0.50;;
13002;SDS011;66869;57.706;11.922;2023-02-28T03:28:23;0.82;;;0.60;;
13002;SDS011;66869;57.706;11.922;2023-02-28T03:30:53;1.35;;;0.52;;
13002;SDS011;66869;57.706;11.922;2023-02-28T03:33:21;2.08;;;0.55;;
13002;SDS011;66869;57.706;11.922;2023-02-28T03:35:56;3.05;;;0.80;;
13002;SDS011;66869;57.706;11.922;2023-02-28T03:40:48;1.07;;;0.60;;
13002;SDS011;66869;57.706;11.922;2023-02-28T03:43:16;0.47;;;0.40;;
13002;SDS011;66869;57.706;11.922;2023-02-28T03:45:42;0.60;;;0.60;;
13002;SDS011;66869;57.706;11.922;2023-02-28T03:48:13;1.15;;;0.50;;
13002;SDS011;66869;57.706;11.922;2023-02-28T03:50:41;0.52;;;0.50;;
13002;SDS011;66869;57.706;11.922;2023-02-28T03:53:15;0.50;;;0.50;;
13002;SDS011;66869;57.706;11.922;2023-02-28T03:55:45;0.55;;;0.50;;
13002;SDS011;66869;57.706;11.922;2023-02-28T04:00:46;0.50;;;0.40;;
13002;SDS011;66869;57.706;11.922;2023-02-28T04:03:12;7.75;;;0.50;;
13002;SDS011;66869;57.706;11.922;2023-02-28T04:06:12;2.50;;;0.50;;
13002;SDS011;66869;57.706;11.922;2023-02-28T04:08:29;0.73;;;0.60;;
13002;SDS011;66869;57.706;11.922;2023-02-28T04:11:00;0.55;;;0.55;;
13002;SDS011;66869;57.706;11.922;2023-02-28T04:13:26;0.40;;;0.40;;
13002;SDS011;66869;57.706;11.922;2023-02-28T04:15:51;0.70;;;0.50;;
13002;SDS011;66869;57.706;11.922;2023-02-28T04:18:16;1.02;;;0.57;;
13002;SDS011;66869;57.706;11.922;2023-02-28T04:20:42;1.00;;;0.50;;
13002;SDS011;66869;57.706;11.922;2023-02-28T04:23:07;0.70;;;0.70;;
13002;SDS011;66869;57.706;11.922;2023-02-28T04:25:32;0.50;;;0.50;;
13002;SDS011;66869;57.706;11.922;2023-02-28T04:27:58;0.50;;;0.50;;
13002;SDS011;66869;57.706;11.922;2023-02-28T04:30:23;0.50;;;0.50;;
13002;SDS011;66869;57.706;11.922;2023-02-28T04:32:48;0.60;;;0.40;;
13002;SDS011;66869;57.706;11.922;2023-02-28T04:35:13;0.68;;;0.60;;
13002;SDS011;66869;57.706;11.922;2023-02-28T04:37:39;2.83;;;0.60;;
13002;SDS011;66869;57.706;11.922;2023-02-28T04:40:04;0.65;;;0.38;;
13002;SDS011;66869;57.706;11.922;2023-02-28T04:42:30;0.43;;;0.43;;
13002;SDS011;66869;57.706;11.922;2023-02-28T04:45:01;0.50;;;0.40;;
13002;SDS011;66869;57.706;11.922;2023-02-28T04:47:26;0.43;;;0.43;;
13002;SDS011;66869;57.706;11.922;2023-02-28T04:49:52;0.60;;;0.57;;
13002;SDS011;66869;57.706;11.922;2023-02-28T04:52:17;0.63;;;0.40;;
13002;SDS011;66869;57.706;11.922;2023-02-28T04:54:42;1.02;;;0.63;;
13002;SDS011;66869;57.706;11.922;2023-02-28T04:57:07;1.05;;;0.47;;
13002;SDS011;66869;57.706;11.922;2023-02-28T04:59:33;0.40;;;0.40;;
13002;SDS011;66869;57.706;11.922;2023-02-28T05:01:58;0.65;;;0.50;;
13002;SDS011;66869;57.706;11.922;2023-02-28T05:04:23;0.52;;;0.40;;
13002;SDS011;66869;57.706;11.922;2023-02-28T05:06:49;0.45;;;0.45;;
13002;SDS011;66869;57.706;11.922;2023-02-28T05:09:14;0.70;;;0.60;;
13002;SDS011;66869;57.706;11.922;2023-02-28T05:11:39;0.82;;;0.45;;
13002;SDS011;66869;57.706;11.922;2023-02-28T05:14:06;0.63;;;0.60;;
13002;SDS011;66869;57.706;11.922;2023-02-28T05:16:32;2.45;;;0.40;;
13002;SDS011;66869;57.706;11.922;2023-02-28T05:18:57;0.40;;;0.40;;
13002;SDS011;66869;57.706;11.922;2023-02-28T05:23:49;27.08;;;6.07;;
13002;SDS011;66869;57.706;11.922;2023-02-28T05:26:14;36.85;;;7.93;;
13002;SDS011;66869;57.706;11.922;2023-02-28T05:28:39;55.30;;;11.98;;
13002;SDS011;66869;57.706;11.922;2023-02-28T05:31:04;51.15;;;11.82;;
13002;SDS011;66869;57.706;11.922;2023-02-28T05:33:30;52.75;;;11.68;;
13002;SDS011;66869;57.706;11.922;2023-02-28T05:35:55;50.50;;;11.20;;
13002;SDS011;66869;57.706;11.922;2023-02-28T05:38:20;49.42;;;10.77;;
13002;SDS011;66869;57.706;11.922;2023-02-28T05:40:45;29.88;;;7.82;;
13002;SDS011;66869;57.706;11.922;2023-02-28T05:43:11;30.13;;;7.70;;
13002;SDS011;66869;57.706;11.922;2023-02-28T05:45:37;22.45;;;5.18;;
13002;SDS011;66869;57.706;11.922;2023-02-28T05:48:02;20.83;;;4.90;;
13002;SDS011;66869;57.706;11.922;2023-02-28T05:50:27;13.98;;;4.40;;
13002;SDS011;66869;57.706;11.922;2023-02-28T05:52:52;14.95;;;4.75;;
13002;SDS011;66869;57.706;11.922;2023-02-28T05:55:18;15.32;;;4.57;;
13002;SDS011;66869;57.706;11.922;2023-02-28T05:57:43;20.40;;;4.40;;
13002;SDS011;66869;57.706;11.922;2023-02-28T06:00:09;12.18;;;3.92;;
13002;SDS011;66869;57.706;11.922;2023-02-28T06:02:34;15.75;;;3.80;;
13002;SDS011;66869;57.706;11.922;2023-02-28T06:04:59;15.00;;;3.58;;
13002;SDS011;66869;57.706;11.922;2023-02-28T06:07:25;10.20;;;3.33;;
13002;SDS011;66869;57.706;11.922;2023-02-28T06:09:50;11.80;;;3.70;;
13002;SDS011;66869;57.706;11.922;2023-02-28T06:12:15;11.88;;;2.90;;
13002;SDS011;66869;57.706;11.922;2023-02-28T06:14:40;10.10;;;3.38;;
13002;SDS011;66869;57.706;11.922;2023-02-28T06:17:06;9.73;;;3.30;;
13002;SDS011;66869;57.706;11.922;2023-02-28T06:19:31;8.43;;;2.70;;
13002;SDS011;66869;57.706;11.922;2023-02-28T06:21:56;10.30;;;2.80;;
13002;SDS011;66869;57.706;11.922;2023-02-28T06:24:23;7.88;;;2.42;;
13002;SDS011;66869;57.706;11.922;2023-02-28T06:26:48;10.85;;;2.75;;
13002;SDS011;66869;57.706;11.922;2023-02-28T06:29:14;6.80;;;2.30;;
13002;SDS011;66869;57.706;11.922;2023-02-28T06:31:43;7.65;;;2.33;;
13002;SDS011;66869;57.706;11.922;2023-02-28T06:34:09;5.78;;;2.00;;
13002;SDS011;66869;57.706;11.922;2023-02-28T06:36:36;5.68;;;2.38;;
13002;SDS011;66869;57.706;11.922;2023-02-28T06:39:01;6.22;;;2.00;;
13002;SDS011;66869;57.706;11.922;2023-02-28T06:41:27;8.52;;;2.45;;
13002;SDS011;66869;57.706;11.922;2023-02-28T06:43:52;5.68;;;1.88;;
13002;SDS011;66869;57.706;11.922;2023-02-28T06:46:18;6.18;;;1.65;;
13002;SDS011;66869;57.706;11.922;2023-02-28T06:48:44;4.47;;;1.42;;
13002;SDS011;66869;57.706;11.922;2023-02-28T06:51:10;3.55;;;1.48;;
13002;SDS011;66869;57.706;11.922;2023-02-28T06:53:36;4.25;;;1.38;;
13002;SDS011;66869;57.706;11.922;2023-02-28T06:56:09;4.05;;;1.50;;
13002;SDS011;66869;57.706;11.922;2023-02-28T06:58:35;4.88;;;1.38;;
13002;SDS011;66869;57.706;11.922;2023-02-28T07:01:00;2.50;;;1.02;;
13002;SDS011;66869;57.706;11.922;2023-02-28T07:03:26;3.00;;;1.17;;
13002;SDS011;66869;57.706;11.922;2023-02-28T07:05:51;2.97;;;1.13;;
13002;SDS011;66869;57.706;11.922;2023-02-28T07:08:16;4.20;;;1.30;;
13002;SDS011;66869;57.706;11.922;2023-02-28T07:10:41;2.30;;;1.20;;
13002;SDS011;66869;57.706;11.922;2023-02-28T07:13:07;3.22;;;1.10;;
13002;SDS011;66869;57.706;11.922;2023-02-28T07:15:33;1.38;;;0.90;;
13002;SDS011;66869;57.706;11.922;2023-02-28T07:17:58;2.70;;;0.95;;
13002;SDS011;66869;57.706;11.922;2023-02-28T07:20:24;2.65;;;1.10;;
13002;SDS011;66869;57.706;11.922;2023-02-28T07:22:50;2.65;;;1.23;;
13002;SDS011;66869;57.706;11.922;2023-02-28T07:25:24;1.60;;;0.80;;
13002;SDS011;66869;57.706;11.922;2023-02-28T07:27:49;1.90;;;1.10;;
13002;SDS011;66869;57.706;11.922;2023-02-28T07:30:15;3.40;;;1.02;;
13002;SDS011;66869;57.706;11.922;2023-02-28T07:32:40;1.85;;;1.02;;
13002;SDS011;66869;57.706;11.922;2023-02-28T07:35:05;1.23;;;0.90;;
13002;SDS011;66869;57.706;11.922;2023-02-28T07:37:31;1.50;;;0.85;;
13002;SDS011;66869;57.706;11.922;2023-02-28T07:40:01;3.22;;;0.95;;
13002;SDS011;66869;57.706;11.922;2023-02-28T07:42:29;1.42;;;0.80;;
13002;SDS011;66869;57.706;11.922;2023-02-28T07:44:54;1.77;;;0.88;;
13002;SDS011;66869;57.706;11.922;2023-02-28T07:47:19;3.42;;;0.90;;
13002;SDS011;66869;57.706;11.922;2023-02-28T07:49:45;2.08;;;0.90;;
13002;SDS011;66869;57.706;11.922;2023-02-28T07:52:11;2.50;;;0.82;;
13002;SDS011;66869;57.706;11.922;2023-02-28T07:54:36;1.55;;;0.70;;
13002;SDS011;66869;57.706;11.922;2023-02-28T07:57:01;1.85;;;0.90;;
13002;SDS011;66869;57.706;11.922;2023-02-28T07:59:27;1.35;;;0.73;;
13002;SDS011;66869;57.706;11.922;2023-02-28T08:01:53;1.33;;;0.95;;
13002;SDS011;66869;57.706;11.922;2023-02-28T08:04:18;1.10;;;0.73;;
13002;SDS011;66869;57.706;11.922;2023-02-28T08:06:43;0.88;;;0.63;;
13002;SDS011;66869;57.706;11.922;2023-02-28T08:09:09;0.90;;;0.80;;
13002;SDS011;66869;57.706;11.922;2023-02-28T08:11:34;0.95;;;0.80;;
13002;SDS011;66869;57.706;11.922;2023-02-28T08:13:59;3.35;;;0.70;;
13002;SDS011;66869;57.706;11.922;2023-02-28T08:16:24;0.90;;;0.85;;
13002;SDS011;66869;57.706;11.922;2023-02-28T08:18:53;1.27;;;0.90;;
13002;SDS011;66869;57.706;11.922;2023-02-28T08:21:19;1.10;;;0.90;;
13002;SDS011;66869;57.706;11.922;2023-02-28T08:23:48;1.15;;;0.88;;
13002;SDS011;66869;57.706;11.922;2023-02-28T08:26:13;0.80;;;0.80;;
13002;SDS011;66869;57.706;11.922;2023-02-28T08:28:39;1.75;;;0.88;;
13002;SDS011;66869;57.706;11.922;2023-02-28T08:31:08;1.33;;;0.75;;
13002;SDS011;66869;57.706;11.922;2023-02-28T08:33:34;1.30;;;0.90;;
13002;SDS011;66869;57.706;11.922;2023-02-28T08:35:59;1.50;;;1.02;;
13002;SDS011;66869;57.706;11.922;2023-02-28T08:38:25;1.25;;;0.90;;
13002;SDS011;66869;57.706;11.922;2023-02-28T08:40:56;1.20;;;0.70;;
13002;SDS011;66869;57.706;11.922;2023-02-28T08:43:21;0.95;;;0.85;;
13002;SDS011;66869;57.706;11.922;2023-02-28T08:45:47;1.92;;;0.88;;
13002;SDS011;66869;57.706;11.922;2023-02-28T08:48:12;1.23;;;0.90;;
13002;SDS011;66869;57.706;11.922;2023-02-28T08:50:38;1.92;;;0.73;;
13002;SDS011;66869;57.706;11.922;2023-02-28T08:53:03;1.52;;;0.80;;
13002;SDS011;66869;57.706;11.922;2023-02-28T08:55:29;0.60;;;0.60;;
13002;SDS011;66869;57.706;11.922;2023-02-28T08:57:54;0.70;;;0.70;;
13002;SDS011;66869;57.706;11.922;2023-02-28T09:00:20;0.88;;;0.75;;
13002;SDS011;66869;57.706;11.922;2023-02-28T09:02:45;1.02;;;0.80;;
13002;SDS011;66869;57.706;11.922;2023-02-28T09:05:11;0.93;;;0.77;;
13002;SDS011;66869;57.706;11.922;2023-02-28T09:07:36;0.90;;;0.80;;
13002;SDS011;66869;57.706;11.922;2023-02-28T09:10:01;0.90;;;0.70;;
13002;SDS011;66869;57.706;11.922;2023-02-28T09:12:27;1.13;;;0.63;;
13002;SDS011;66869;57.706;11.922;2023-02-28T09:14:53;0.60;;;0.60;;
13002;SDS011;66869;57.706;11.922;2023-02-28T09:17:18;0.70;;;0.70;;
13002;SDS011;66869;57.706;11.922;2023-02-28T09:19:44;0.95;;;0.70;;
13002;SDS011;66869;57.706;11.922;2023-02-28T09:22:10;0.70;;;0.70;;
13002;SDS011;66869;57.706;11.922;2023-02-28T09:24:36;0.98;;;0.60;;
13002;SDS011;66869;57.706;11.922;2023-02-28T09:27:02;0.60;;;0.60;;
13002;SDS011;66869;57.706;11.922;2023-02-28T09:29:27;1.17;;;0.60;;
13002;SDS011;66869;57.706;11.922;2023-02-28T09:31:52;1.67;;;0.75;;
13002;SDS011;66869;57.706;11.922;2023-02-28T09:34:18;0.98;;;0.60;;
13002;SDS011;66869;57.706;11.922;2023-02-28T09:36:43;1.02;;;0.60;;
13002;SDS011;66869;57.706;11.922;2023-02-28T09:39:08;0.70;;;0.70;;
13002;SDS011;66869;57.706;11.922;2023-02-28T09:41:38;0.98;;;0.68;;
13002;SDS011;66869;57.706;11.922;2023-02-28T09:44:13;0.60;;;0.60;;
13002;SDS011;66869;57.706;11.922;2023-02-28T09:46:43;0.60;;;0.60;;
13002;SDS011;66869;57.706;11.922;2023-02-28T09:49:14;0.60;;;0.60;;
13002;SDS011;66869;57.706;11.922;2023-02-28T09:51:43;0.60;;;0.60;;
13002;SDS011;66869;57.706;11.922;2023-02-28T09:54:14;0.60;;;0.60;;
13002;SDS011;66869;57.706;11.922;2023-02-28T09:56:44;0.65;;;0.65;;
13002;SDS011;66869;57.706;11.922;2023-02-28T09:59:11;0.70;;;0.70;;
13002;SDS011;66869;57.706;11.922;2023-02-28T10:01:53;0.93;;;0.80;;
13002;SDS011;66869;57.706;11.922;2023-02-28T10:07:12;0.60;;;0.60;;
13002;SDS011;66869;57.706;11.922;2023-02-28T10:09:42;0.60;;;0.60;;
13002;SDS011;66869;57.706;11.922;2023-02-28T10:12:09;0.60;;;0.60;;
13002;SDS011;66869;57.706;11.922;2023-02-28T10:14:36;0.85;;;0.85;;
13002;SDS011;66869;57.706;11.922;2023-02-28T10:17:12;0.82;;;0.77;;
13002;SDS011;66869;57.706;11.922;2023-02-28T10:27:37;0.70;;;0.70;;
13002;SDS011;66869;57.706;11.922;2023-02-28T10:29:44;0.60;;;0.60;;
13002;SDS011;66869;57.706;11.922;2023-02-28T10:32:11;0.82;;;0.65;;
13002;SDS011;66869;57.706;11.922;2023-02-28T10:34:38;0.70;;;0.70;;
13002;SDS011;66869;57.706;11.922;2023-02-28T10:37:03;0.88;;;0.75;;
13002;SDS011;66869;57.706;11.922;2023-02-28T10:42:03;0.77;;;0.68;;
13002;SDS011;66869;57.706;11.922;2023-02-28T10:44:29;0.70;;;0.70;;
13002;SDS011;66869;57.706;11.922;2023-02-28T10:46:54;0.75;;;0.75;;
13002;SDS011;66869;57.706;11.922;2023-02-28T10:49:21;0.73;;;0.73;;
13002;SDS011;66869;57.706;11.922;2023-02-28T10:51:46;0.85;;;0.70;;
13002;SDS011;66869;57.706;11.922;2023-02-28T10:54:25;0.73;;;0.50;;
13002;SDS011;66869;57.706;11.922;2023-02-28T10:57:08;0.65;;;0.63;;
13002;SDS011;66869;57.706;11.922;2023-02-28T10:59:38;0.80;;;0.60;;
13002;SDS011;66869;57.706;11.922;2023-02-28T11:02:13;0.60;;;0.60;;
13002;SDS011;66869;57.706;11.922;2023-02-28T11:04:48;0.82;;;0.68;;
13002;SDS011;66869;57.706;11.922;2023-02-28T11:09:39;0.70;;;0.70;;
13002;SDS011;66869;57.706;11.922;2023-02-28T11:12:06;0.70;;;0.70;;
13002;SDS011;66869;57.706;11.922;2023-02-28T11:14:33;0.60;;;0.60;;
13002;SDS011;66869;57.706;11.922;2023-02-28T11:19:45;0.60;;;0.60;;
13002;SDS011;66869;57.706;11.922;2023-02-28T11:22:11;0.70;;;0.70;;
13002;SDS011;66869;57.706;11.922;2023-02-28T11:24:41;0.50;;;0.50;;
13002;SDS011;66869;57.706;11.922;2023-02-28T11:30:00;0.50;;;0.50;;
13002;SDS011;66869;57.706;11.922;2023-02-28T11:32:29;0.50;;;0.50;;
13002;SDS011;66869;57.706;11.922;2023-02-28T11:37:26;0.60;;;0.60;;
13002;SDS011;66869;57.706;11.922;2023-02-28T11:39:52;0.60;;;0.60;;
13002;SDS011;66869;57.706;11.922;2023-02-28T11:42:30;0.77;;;0.77;;
13002;SDS011;66869;57.706;11.922;2023-02-28T12:02:29;0.50;;;0.50;;
13002;SDS011;66869;57.706;11.922;2023-02-28T12:10:25;0.63;;;0.57;;
13002;SDS011;66869;57.706;11.922;2023-02-28T12:25:47;0.68;;;0.57;;
13002;SDS011;66869;57.706;11.922;2023-02-28T12:28:16;0.50;;;0.50;;
13002;SDS011;66869;57.706;11.922;2023-02-28T12:30:53;0.40;;;0.40;;
13002;SDS011;66869;57.706;11.922;2023-02-28T12:33:22;0.57;;;0.50;;
13002;SDS011;66869;57.706;11.922;2023-02-28T12:35:51;0.40;;;0.40;;
13002;SDS011;66869;57.706;11.922;2023-02-28T12:38:24;0.40;;;0.40;;
13002;SDS011;66869;57.706;11.922;2023-02-28T12:40:55;0.40;;;0.40;;
13002;SDS011;66869;57.706;11.922;2023-02-28T12:43:22;0.40;;;0.40;;
13002;SDS011;66869;57.706;11.922;2023-02-28T12:45:51;1.08;;;0.50;;
13002;SDS011;66869;57.706;11.922;2023-02-28T12:48:23;0.50;;;0.50;;
13002;SDS011;66869;57.706;11.922;2023-02-28T12:50:49;0.65;;;0.35;;
13002;SDS011;66869;57.706;11.922;2023-02-28T12:55:52;0.40;;;0.40;;
13002;SDS011;66869;57.706;11.922;2023-02-28T12:58:29;0.47;;;0.47;;
13002;SDS011;66869;57.706;11.922;2023-02-28T13:01:06;0.50;;;0.50;;
13002;SDS011;66869;57.706;11.922;2023-02-28T13:03:45;0.57;;;0.57;;
13002;SDS011;66869;57.706;11.922;2023-02-28T13:09:01;0.57;;;0.40;;
13002;SDS011;66869;57.706;11.922;2023-02-28T13:11:38;0.50;;;0.50;;
13002;SDS011;66869;57.706;11.922;2023-02-28T13:14:05;0.52;;;0.52;;
13002;SDS011;66869;57.706;11.922;2023-02-28T13:19:15;0.52;;;0.50;;
13002;SDS011;66869;57.706;11.922;2023-02-28T13:21:43;0.40;;;0.40;;
13002;SDS011;66869;57.706;11.922;2023-02-28T13:24:09;0.60;;;0.60;;
13002;SDS011;66869;57.706;11.922;2023-02-28T13:34:21;0.32;;;0.32;;
13002;SDS011;66869;57.706;11.922;2023-02-28T13:36:46;0.60;;;0.50;;
13002;SDS011;66869;57.706;11.922;2023-02-28T13:41:55;0.50;;;0.50;;
13002;SDS011;66869;57.706;11.922;2023-02-28T13:44:21;0.40;;;0.40;;
13002;SDS011;66869;57.706;11.922;2023-02-28T13:54:33;1.05;;;0.47;;
13002;SDS011;66869;57.706;11.922;2023-02-28T14:05:02;0.52;;;0.47;;
13002;SDS011;66869;57.706;11.922;2023-02-28T14:07:36;1.30;;;0.50;;
13002;SDS011;66869;57.706;11.922;2023-02-28T14:10:04;0.80;;;0.43;;
13002;SDS011;66869;57.706;11.922;2023-02-28T14:17:52;0.30;;;0.30;;
13002;SDS011;66869;57.706;11.922;2023-02-28T14:20:18;0.30;;;0.30;;
13002;SDS011;66869;57.706;11.922;2023-02-28T14:22:49;0.30;;;0.30;;
13002;SDS011;66869;57.706;11.922;2023-02-28T14:33:22;0.40;;;0.40;;
13002;SDS011;66869;57.706;11.922;2023-02-28T14:38:30;0.30;;;0.30;;
13002;SDS011;66869;57.706;11.922;2023-02-28T14:40:57;0.50;;;0.50;;
13002;SDS011;66869;57.706;11.922;2023-02-28T14:43:24;0.22;;;0.20;;
13002;SDS011;66869;57.706;11.922;2023-02-28T14:45:50;0.30;;;0.30;;
13002;SDS011;66869;57.706;11.922;2023-02-28T14:48:16;0.30;;;0.30;;
13002;SDS011;66869;57.706;11.922;2023-02-28T14:50:42;0.30;;;0.30;;
13002;SDS011;66869;57.706;11.922;2023-02-28T14:53:15;0.60;;;0.40;;
13002;SDS011;66869;57.706;11.922;2023-02-28T14:55:44;0.40;;;0.40;;
13002;SDS011;66869;57.706;11.922;2023-02-28T15:00:48;0.35;;;0.32;;
13002;SDS011;66869;57.706;11.922;2023-02-28T15:03:18;0.40;;;0.30;;
13002;SDS011;66869;57.706;11.922;2023-02-28T15:05:50;0.20;;;0.20;;
13002;SDS011;66869;57.706;11.922;2023-02-28T15:08:16;0.30;;;0.30;;
13002;SDS011;66869;57.706;11.922;2023-02-28T15:10:49;0.57;;;0.35;;
13002;SDS011;66869;57.706;11.922;2023-02-28T15:13:16;0.20;;;0.20;;
13002;SDS011;66869;57.706;11.922;2023-02-28T15:15:51;0.35;;;0.30;;
13002;SDS011;66869;57.706;11.922;2023-02-28T15:20:48;0.30;;;0.30;;
13002;SDS011;66869;57.706;11.922;2023-02-28T15:23:14;0.20;;;0.20;;
13002;SDS011;66869;57.706;11.922;2023-02-28T15:25:40;0.25;;;0.25;;
13002;SDS011;66869;57.706;11.922;2023-02-28T15:28:09;0.85;;;0.30;;
13002;SDS011;66869;57.706;11.922;2023-02-28T15:30:38;0.30;;;0.30;;
13002;SDS011;66869;57.706;11.922;2023-02-28T15:35:38;0.35;;;0.35;;
13002;SDS011;66869;57.706;11.922;2023-02-28T15:38:13;0.47;;;0.40;;
13002;SDS011;66869;57.706;11.922;2023-02-28T15:40:43;0.30;;;0.30;;
13002;SDS011;66869;57.706;11.922;2023-02-28T15:43:16;0.40;;;0.40;;
13002;SDS011;66869;57.706;11.922;2023-02-28T15:48:32;1.00;;;0.52;;
13002;SDS011;66869;57.706;11.922;2023-02-28T15:53:37;0.40;;;0.40;;
13002;SDS011;66869;57.706;11.922;2023-02-28T15:56:04;0.55;;;0.30;;
13002;SDS011;66869;57.706;11.922;2023-02-28T15:58:30;0.65;;;0.40;;
13002;SDS011;66869;57.706;11.922;2023-02-28T16:01:00;0.30;;;0.30;;
13002;SDS011;66869;57.706;11.922;2023-02-28T16:03:26;0.50;;;0.50;;
13002;SDS011;66869;57.706;11.922;2023-02-28T16:08:35;0.45;;;0.35;;
13002;SDS011;66869;57.706;11.922;2023-02-28T16:11:00;0.30;;;0.30;;
13002;SDS011;66869;57.706;11.922;2023-02-28T16:13:26;0.57;;;0.40;;
13002;SDS011;66869;57.706;11.922;2023-02-28T16:15:51;0.40;;;0.30;;
13002;SDS011;66869;57.706;11.922;2023-02-28T16:18:16;0.30;;;0.30;;
13002;SDS011;66869;57.706;11.922;2023-02-28T16:20:42;0.32;;;0.32;;
13002;SDS011;66869;57.706;11.922;2023-02-28T16:23:09;0.30;;;0.20;;
13002;SDS011;66869;57.706;11.922;2023-02-28T16:25:35;0.20;;;0.20;;
13002;SDS011;66869;57.706;11.922;2023-02-28T16:28:01;0.17;;;0.17;;
13002;SDS011;66869;57.706;11.922;2023-02-28T16:30:27;0.55;;;0.43;;
13002;SDS011;66869;57.706;11.922;2023-02-28T16:32:54;0.20;;;0.20;;
13002;SDS011;66869;57.706;11.922;2023-02-28T16:35:20;0.60;;;0.30;;
13002;SDS011;66869;57.706;11.922;2023-02-28T16:37:45;0.30;;;0.30;;
13002;SDS011;66869;57.706;11.922;2023-02-28T16:40:15;0.40;;;0.30;;
13002;SDS011;66869;57.706;11.922;2023-02-28T16:42:41;0.30;;;0.30;;
13002;SDS011;66869;57.706;11.922;2023-02-28T16:45:10;0.20;;;0.15;;
13002;SDS011;66869;57.706;11.922;2023-02-28T16:47:36;0.20;;;0.20;;
13002;SDS011;66869;57.706;11.922;2023-02-28T16:50:04;0.10;;;0.10;;
13002;SDS011;66869;57.706;11.922;2023-02-28T16:52:29;0.30;;;0.30;;
13002;SDS011;66869;57.706;11.922;2023-02-28T16:54:55;0.30;;;0.30;;
13002;SDS011;66869;57.706;11.922;2023-02-28T16:57:21;0.20;;;0.20;;
13002;SDS011;66869;57.706;11.922;2023-02-28T16:59:48;0.20;;;0.20;;
13002;SDS011;66869;57.706;11.922;2023-02-28T17:02:15;0.20;;;0.20;;
13002;SDS011;66869;57.706;11.922;2023-02-28T17:04:41;0.30;;;0.30;;
13002;SDS011;66869;57.706;11.922;2023-02-28T17:07:13;0.20;;;0.20;;
13002;SDS011;66869;57.706;11.922;2023-02-28T17:09:40;0.30;;;0.30;;
13002;SDS011;66869;57.706;11.922;2023-02-28T17:12:06;0.20;;;0.20;;